Time;durP1;ratioP1;P1;durP2;ratioP2;P2;SDS_P1;SDS_P2;PMS_P1;PMS_P2;Temp;Humidity;BMP_temperature;BMP_pressure;BME280_temperature;BME280_humidity;BME280_pressure;Samples;Min_cycle;Max_cycle;Signal;HPM_P1;HPM_P2
2023/12/15 06:35:02;;;;;;;216.02;22.75;;;;;;;;;;3793780;27;20127;-92
2023/12/15 06:38:39;;;;;;;;;;;;;;;;;;;;;
2023/12/15 06:58:52;;;;;;;421.10;40.78;;;;;;;;;;4376528;27;20231;-93
2023/12/15 07:13:09;;;;;;;75.38;14.00;;;;;;;;;;4625511;30;20419;-94
2023/12/15 07:20:19;;;;;;;;;;;;;;;;;;;;;
2023/12/15 07:23:39;;;;;;;;;;;;;;;;;;;;;
2023/12/15 07:35:27;;;;;;;;;;;;;;;;;;;;;
2023/12/15 07:41:53;;;;;;;;;;;;;;;;;;;;;
2023/12/15 07:45:28;;;;;;;;;;;;;;;;;;;;;
2023/12/15 07:48:30;;;;;;;;;;;;;;;;;;;;;
2023/12/15 07:52:00;;;;;;;;;;;;;;;;;;;;;
2023/12/15 07:55:11;;;;;;;402.13;39.03;;;;;;;;;;4630995;30;20375;-92
2023/12/15 07:58:24;;;;;;;;;;;;;;;;;;;;;
2023/12/15 08:01:50;;;;;;;492.73;46.92;;;;;;;;;;4723955;29;20055;-92
2023/12/15 08:05:18;;;;;;;;;;;;;;;;;;;;;
2023/12/15 08:08:54;;;;;;;;;;;;;;;;;;;;;
2023/12/15 08:12:08;;;;;;;;;;;;;;;;;;;;;
2023/12/15 08:15:48;;;;;;;;;;;;;;;;;;;;;
2023/12/15 08:19:05;;;;;;;;;;;;;;;;;;;;;
2023/12/15 08:29:57;;;;;;;;;;;;;;;;;;;;;
2023/12/15 08:33:24;;;;;;;454.05;40.28;;;;;;;;;;4642334;30;20049;-92
2023/12/15 08:47:59;;;;;;;;;;;;;;;;;;4589402;30;20051;-92
2023/12/15 08:51:34;;;;;;;627.60;59.88;;;;;;;;;;4565221;30;19929;-91
2023/12/15 08:55:12;;;;;;;638.30;60.53;;;;;;;;;;4545707;31;20059;-91
2023/12/15 08:58:31;;;;;;;;;;;;;;;;;;;;;
2023/12/15 09:05:03;;;;;;;;;;;;;;;;;;;;;
2023/12/15 09:08:27;;;;;;;;;;;;;;;;;;;;;
2023/12/15 09:15:18;;;;;;;;;;;;;;;;;;;;;
2023/12/15 09:22:27;;;;;;;;;;;;;;;;;;;;;
2023/12/15 09:25:47;;;;;;;;;;;;;;;;;;;;;
2023/12/15 09:33:07;;;;;;;;;;;;;;;;;;;;;
2023/12/15 09:36:09;;;;;;;452.80;43.08;;;;;;;;;;4599725;30;20064;-92
2023/12/15 09:38:49;;;;;;;395.33;39.22;;;;;;;;;;4631949;30;20053;-92
2023/12/15 09:41:16;;;;;;;407.10;41.63;;;;;;;;;;4794451;29;20058;-92
2023/12/15 09:43:43;;;;;;;461.95;45.75;;;;;;;;;;4855124;29;20044;-92
2023/12/15 09:46:09;;;;;;;330.42;35.95;;;;;;;;;;4862991;29;21128;-92
2023/12/15 09:48:36;;;;;;;535.38;52.25;;;;;;;;;;4854685;29;20039;-91
2023/12/15 09:51:06;;;;;;;543.67;55.20;;;;;;;;;;4849834;29;20055;-92
2023/12/15 09:53:37;;;;;;;494.58;49.63;;;;;;;;;;4831916;29;21076;-91
2023/12/15 09:56:05;;;;;;;589.17;60.38;;;;;;;;;;4828155;29;20044;-91
2023/12/15 09:58:31;;;;;;;396.90;41.63;;;;;;;;;;4842427;29;20055;-92
2023/12/15 10:00:58;;;;;;;390.67;41.40;;;;;;;;;;4840671;29;20060;-92
2023/12/15 10:03:25;;;;;;;391.70;39.13;;;;;;;;;;4845885;29;20044;-93
2023/12/15 10:05:52;;;;;;;292.98;32.20;;;;;;;;;;4841464;29;20040;-92
2023/12/15 10:08:23;;;;;;;250.77;29.30;;;;;;;;;;4836799;29;20051;-93
2023/12/15 10:10:51;;;;;;;444.20;44.15;;;;;;;;;;4833109;29;20041;-92
2023/12/15 10:13:18;;;;;;;526.85;51.80;;;;;;;;;;4836401;29;20037;-93
2023/12/15 10:15:49;;;;;;;410.25;42.17;;;;;;;;;;4832355;29;20867;-92
2023/12/15 10:18:15;;;;;;;358.27;37.88;;;;;;;;;;4836033;29;20040;-93
2023/12/15 10:20:45;;;;;;;375.98;38.03;;;;;;;;;;4838429;29;20044;-93
2023/12/15 10:23:14;;;;;;;221.85;26.80;;;;;;;;;;4842883;29;20036;-92
2023/12/15 10:25:48;;;;;;;252.80;28.23;;;;;;;;;;4856677;29;20048;-93
2023/12/15 10:28:15;;;;;;;236.90;29.25;;;;;;;;;;4848223;29;20047;-92
2023/12/15 10:30:42;;;;;;;266.25;29.40;;;;;;;;;;4854180;29;20123;-93
2023/12/15 10:33:08;;;;;;;210.27;26.25;;;;;;;;;;4852150;29;20651;-93
2023/12/15 10:35:36;;;;;;;119.03;20.55;;;;;;;;;;4870590;29;20040;-93
2023/12/15 10:38:03;;;;;;;233.05;27.20;;;;;;;;;;4862912;29;20721;-93
2023/12/15 10:40:31;;;;;;;134.57;20.95;;;;;;;;;;4868248;29;20767;-93
2023/12/15 10:42:58;;;;;;;97.35;18.23;;;;;;;;;;4870776;29;20045;-94
2023/12/15 10:45:25;;;;;;;112.50;18.55;;;;;;;;;;4866401;29;20147;-93
2023/12/15 10:47:54;;;;;;;101.30;19.02;;;;;;;;;;4873627;29;20048;-94
2023/12/15 10:50:21;;;;;;;162.85;21.17;;;;;;;;;;4862891;29;20857;-93
2023/12/15 10:52:49;;;;;;;105.25;18.98;;;;;;;;;;4877919;29;20036;-94
2023/12/15 10:55:19;;;;;;;171.23;24.33;;;;;;;;;;4862273;29;20047;-93
2023/12/15 10:57:47;;;;;;;147.82;23.90;;;;;;;;;;4863926;29;20056;-93
2023/12/15 11:00:17;;;;;;;185.77;25.90;;;;;;;;;;4863245;29;20901;-93
2023/12/15 11:02:45;;;;;;;200.75;27.95;;;;;;;;;;4857297;29;20032;-93
2023/12/15 11:05:12;;;;;;;173.38;23.88;;;;;;;;;;4860348;29;20933;-93
2023/12/15 11:07:41;;;;;;;290.40;33.00;;;;;;;;;;4848453;29;20044;-93
2023/12/15 11:10:09;;;;;;;328.92;35.40;;;;;;;;;;4842807;29;20033;-93
2023/12/15 11:12:37;;;;;;;293.77;33.08;;;;;;;;;;4841532;29;20859;-92
2023/12/15 11:15:06;;;;;;;360.10;37.35;;;;;;;;;;4843926;29;20055;-93
2023/12/15 11:17:37;;;;;;;443.67;45.47;;;;;;;;;;4834620;29;20063;-93
2023/12/15 11:20:06;;;;;;;424.10;42.22;;;;;;;;;;4836155;29;20053;-93
2023/12/15 11:22:42;;;;;;;276.73;30.00;;;;;;;;;;4840169;29;20033;-93
2023/12/15 11:25:15;;;;;;;269.67;32.97;;;;;;;;;;4861246;29;20931;-92
2023/12/15 11:28:00;;;;;;;410.33;43.03;;;;;;;;;;4855859;29;20059;-92
2023/12/15 11:30:30;;;;;;;439.15;45.92;;;;;;;;;;4851736;29;20044;-92
2023/12/15 11:32:57;;;;;;;484.90;48.67;;;;;;;;;;4826370;29;20854;-92
2023/12/15 11:35:29;;;;;;;454.30;45.47;;;;;;;;;;4831247;29;20618;-92
2023/12/15 11:37:57;;;;;;;500.65;51.35;;;;;;;;;;4829037;29;20068;-92
2023/12/15 11:40:30;;;;;;;483.00;48.75;;;;;;;;;;4832269;29;20127;-92
2023/12/15 11:42:57;;;;;;;449.92;47.70;;;;;;;;;;4834468;29;20430;-92
2023/12/15 11:45:26;;;;;;;520.67;54.08;;;;;;;;;;4827144;29;20044;-93
2023/12/15 11:47:53;;;;;;;247.55;31.23;;;;;;;;;;4852924;29;20878;-92
2023/12/15 11:50:21;;;;;;;417.60;43.70;;;;;;;;;;4814123;29;20164;-92
2023/12/15 11:52:51;;;;;;;417.38;43.47;;;;;;;;;;4820030;29;21079;-92
2023/12/15 11:55:19;;;;;;;458.25;48.50;;;;;;;;;;4822428;29;21050;-92
2023/12/15 11:57:46;;;;;;;533.28;56.22;;;;;;;;;;4833366;29;20056;-92
2023/12/15 12:00:14;;;;;;;548.10;58.65;;;;;;;;;;4821415;29;20122;-93
2023/12/15 12:02:41;;;;;;;566.72;60.55;;;;;;;;;;4823413;29;20039;-92
2023/12/15 12:05:08;;;;;;;560.83;57.45;;;;;;;;;;4819478;29;21008;-92
2023/12/15 12:07:35;;;;;;;389.95;42.10;;;;;;;;;;4848438;29;21110;-92
2023/12/15 12:10:03;;;;;;;403.60;42.28;;;;;;;;;;4833403;29;21046;-93
2023/12/15 12:12:29;;;;;;;170.07;26.05;;;;;;;;;;4848154;29;20052;-91
2023/12/15 12:15:01;;;;;;;726.22;74.93;;;;;;;;;;4822592;29;20055;-93
2023/12/15 12:17:28;;;;;;;612.72;62.28;;;;;;;;;;4824918;29;20040;-92
2023/12/15 12:19:54;;;;;;;604.85;61.53;;;;;;;;;;4857611;29;20065;-91
2023/12/15 12:22:25;;;;;;;599.50;61.78;;;;;;;;;;4818310;29;20539;-92
2023/12/15 12:24:52;;;;;;;721.33;74.57;;;;;;;;;;4811884;29;20082;-90
2023/12/15 12:27:18;;;;;;;616.25;64.18;;;;;;;;;;4826053;29;21121;-91
2023/12/15 12:29:46;;;;;;;54.35;16.63;;;;;;;;;;4850617;29;20989;-93
2023/12/15 12:32:16;;;;;;;47.40;17.05;;;;;;;;;;4888530;29;20043;-93
2023/12/15 12:34:43;;;;;;;70.95;17.88;;;;;;;;;;4901954;29;20040;-93
2023/12/15 12:37:10;;;;;;;58.58;16.30;;;;;;;;;;4917798;29;20099;-95
2023/12/15 12:39:38;;;;;;;81.72;17.98;;;;;;;;;;4879762;29;20423;-93
2023/12/15 12:42:04;;;;;;;70.07;18.30;;;;;;;;;;4887952;29;20139;-93
2023/12/15 12:44:31;;;;;;;133.05;22.63;;;;;;;;;;4901413;29;20044;-92
2023/12/15 12:46:58;;;;;;;166.95;24.92;;;;;;;;;;4868012;29;20747;-91
2023/12/15 12:49:25;;;;;;;252.15;31.38;;;;;;;;;;4872685;29;20051;-92
2023/12/15 12:51:53;;;;;;;196.93;26.48;;;;;;;;;;4887438;29;20036;-92
2023/12/15 12:54:20;;;;;;;474.30;47.38;;;;;;;;;;4851060;29;20037;-92
2023/12/15 12:56:46;;;;;;;179.82;24.23;;;;;;;;;;4861286;29;20044;-92
2023/12/15 12:59:25;;;;;;;256.30;30.23;;;;;;;;;;4864194;29;20043;-93
2023/12/15 13:01:52;;;;;;;223.23;28.77;;;;;;;;;;4866377;29;20052;-93
2023/12/15 13:04:23;;;;;;;166.98;23.58;;;;;;;;;;4846456;29;20793;-93
2023/12/15 13:06:50;;;;;;;164.40;24.05;;;;;;;;;;4865931;29;20202;-92
2023/12/15 13:09:20;;;;;;;150.60;23.70;;;;;;;;;;4870846;29;20047;-92
2023/12/15 13:11:48;;;;;;;147.80;22.42;;;;;;;;;;4835421;29;20045;-92
2023/12/15 13:14:15;;;;;;;203.93;28.33;;;;;;;;;;4891117;29;20042;-92
2023/12/15 13:16:45;;;;;;;199.80;26.83;;;;;;;;;;4866847;29;20969;-92
2023/12/15 13:19:12;;;;;;;186.10;25.35;;;;;;;;;;4876052;29;20055;-91
2023/12/15 13:21:39;;;;;;;311.30;35.80;;;;;;;;;;4867032;29;20044;-92
2023/12/15 13:24:06;;;;;;;143.27;22.13;;;;;;;;;;4881749;29;20038;-91
2023/12/15 13:26:32;;;;;;;212.77;27.63;;;;;;;;;;4884631;29;20024;-92
2023/12/15 13:28:59;;;;;;;167.10;24.40;;;;;;;;;;4887876;29;20043;-93
2023/12/15 13:31:28;;;;;;;266.52;31.17;;;;;;;;;;4869767;29;20973;-92
2023/12/15 13:33:56;;;;;;;319.65;36.15;;;;;;;;;;4864920;29;20844;-92
2023/12/15 13:36:23;;;;;;;240.32;31.58;;;;;;;;;;4848159;29;20044;-92
2023/12/15 13:38:51;;;;;;;161.43;23.00;;;;;;;;;;4847967;29;20781;-92
2023/12/15 13:41:18;;;;;;;296.48;36.67;;;;;;;;;;4856841;29;20037;-93
2023/12/15 13:43:46;;;;;;;230.68;31.70;;;;;;;;;;4844713;29;20549;-92
2023/12/15 13:46:13;;;;;;;289.80;36.17;;;;;;;;;;4856304;29;20154;-91
2023/12/15 13:48:40;;;;;;;237.93;32.83;;;;;;;;;;4855318;29;20055;-92
2023/12/15 13:51:07;;;;;;;253.90;32.58;;;;;;;;;;4867087;29;20052;-92
2023/12/15 13:53:33;;;;;;;357.33;41.90;;;;;;;;;;4837435;29;20037;-92
2023/12/15 13:56:00;;;;;;;315.33;38.10;;;;;;;;;;4861685;29;20039;-92
2023/12/15 13:58:27;;;;;;;301.40;36.30;;;;;;;;;;4845171;29;20120;-92
2023/12/15 14:00:54;;;;;;;220.73;31.52;;;;;;;;;;4848958;29;20032;-93
2023/12/15 14:03:21;;;;;;;98.95;23.35;;;;;;;;;;4874437;29;20102;-93
2023/12/15 14:05:47;;;;;;;107.10;23.27;;;;;;;;;;4868409;29;20072;-93
2023/12/15 14:08:15;;;;;;;67.93;20.80;;;;;;;;;;4876564;29;20036;-94
2023/12/15 14:10:46;;;;;;;80.25;21.30;;;;;;;;;;4877296;29;20036;-93
2023/12/15 14:13:13;;;;;;;62.00;20.65;;;;;;;;;;4884975;29;20478;-94
2023/12/15 14:15:40;;;;;;;84.15;22.90;;;;;;;;;;4884475;29;20044;-93
2023/12/15 14:18:07;;;;;;;81.90;22.05;;;;;;;;;;4889055;29;20040;-94
2023/12/15 14:20:35;;;;;;;90.25;22.73;;;;;;;;;;4890384;29;20033;-93
2023/12/15 14:23:03;;;;;;;63.88;23.92;;;;;;;;;;4889487;29;20131;-94
2023/12/15 14:25:29;;;;;;;76.22;22.95;;;;;;;;;;4901371;29;20045;-94
2023/12/15 14:27:58;;;;;;;90.25;23.08;;;;;;;;;;4885495;29;20294;-96
2023/12/15 14:30:25;;;;;;;64.60;23.50;;;;;;;;;;4898648;29;20040;-94
2023/12/15 14:32:52;;;;;;;59.22;21.02;;;;;;;;;;4874375;29;20428;-94
2023/12/15 14:35:20;;;;;;;92.88;22.75;;;;;;;;;;4890869;29;20070;-94
2023/12/15 14:37:47;;;;;;;48.47;20.30;;;;;;;;;;4873013;29;20047;-94
2023/12/15 14:40:13;;;;;;;59.00;20.27;;;;;;;;;;4890814;29;20052;-94
2023/12/15 14:42:40;;;;;;;87.13;21.55;;;;;;;;;;4886783;29;20117;-93
2023/12/15 14:45:07;;;;;;;70.63;21.38;;;;;;;;;;4885835;29;20052;-94
2023/12/15 14:47:34;;;;;;;79.80;20.38;;;;;;;;;;4892648;29;20829;-94
2023/12/15 14:50:01;;;;;;;82.55;20.95;;;;;;;;;;4868828;29;20841;-94
2023/12/15 14:52:28;;;;;;;68.93;20.70;;;;;;;;;;4888469;29;20039;-93
2023/12/15 14:54:55;;;;;;;48.92;19.55;;;;;;;;;;4866277;29;20064;-94
2023/12/15 14:57:22;;;;;;;64.82;20.15;;;;;;;;;;4871285;29;20044;-95
2023/12/15 14:59:49;;;;;;;41.95;18.98;;;;;;;;;;4898419;29;20052;-94
2023/12/15 15:02:16;;;;;;;51.20;20.17;;;;;;;;;;4900249;29;20102;-94
2023/12/15 15:04:43;;;;;;;79.47;21.15;;;;;;;;;;4901312;29;20048;-93
2023/12/15 15:07:10;;;;;;;54.80;20.30;;;;;;;;;;4888571;29;20151;-93
2023/12/15 15:09:37;;;;;;;176.73;27.38;;;;;;;;;;4885031;29;20993;-94
2023/12/15 15:12:05;;;;;;;106.45;18.30;;;;;;;;;;4873403;29;20499;-94
2023/12/15 15:14:33;;;;;;;210.82;30.73;;;;;;;;;;4879676;29;20527;-91
2023/12/15 15:17:00;;;;;;;48.67;18.65;;;;;;;;;;4884763;29;20119;-95
2023/12/15 15:19:28;;;;;;;153.18;24.77;;;;;;;;;;4901072;29;20985;-94
2023/12/15 15:21:55;;;;;;;284.63;35.63;;;;;;;;;;4852117;29;20507;-90
2023/12/15 15:24:22;;;;;;;341.33;39.97;;;;;;;;;;4832767;29;20040;-93
2023/12/15 15:26:49;;;;;;;427.33;47.15;;;;;;;;;;4836452;29;20048;-91
2023/12/15 15:29:19;;;;;;;384.27;42.60;;;;;;;;;;4868520;29;20044;-91
2023/12/15 15:31:45;;;;;;;227.93;32.08;;;;;;;;;;4874565;29;20044;-93
2023/12/15 15:34:16;;;;;;;174.52;27.17;;;;;;;;;;4853082;29;21079;-92
2023/12/15 15:36:46;;;;;;;602.85;63.90;;;;;;;;;;4832386;29;20066;-90
2023/12/15 15:39:13;;;;;;;303.35;37.58;;;;;;;;;;4857466;29;20221;-92
2023/12/15 15:41:39;;;;;;;782.03;81.55;;;;;;;;;;4851745;29;20113;-89
2023/12/15 15:44:06;;;;;;;651.00;67.95;;;;;;;;;;4796271;29;20147;-90
2023/12/15 15:46:45;;;;;;;519.88;53.42;;;;;;;;;;4830812;29;20131;-90
2023/12/15 15:49:12;;;;;;;329.73;37.17;;;;;;;;;;4840679;29;21077;-92
2023/12/15 15:51:39;;;;;;;331.30;39.75;;;;;;;;;;4857459;29;20071;-91
2023/12/15 15:54:06;;;;;;;582.55;60.88;;;;;;;;;;4807547;29;21108;-91
2023/12/15 15:56:33;;;;;;;581.42;61.92;;;;;;;;;;4827364;29;20219;-91
2023/12/15 15:59:09;;;;;;;838.95;89.35;;;;;;;;;;4801304;29;20047;-88
2023/12/15 16:01:35;;;;;;;435.88;45.33;;;;;;;;;;4876702;29;20052;-91
2023/12/15 16:04:09;;;;;;;236.70;27.45;;;;;;;;;;4856743;29;20051;-88
2023/12/15 16:06:36;;;;;;;519.80;53.83;;;;;;;;;;4873047;29;20051;-92
2023/12/15 16:09:07;;;;;;;571.65;58.10;;;;;;;;;;4834661;29;20107;-92
2023/12/15 16:11:35;;;;;;;674.55;68.78;;;;;;;;;;4832144;29;20047;-90
2023/12/15 16:14:01;;;;;;;565.20;56.50;;;;;;;;;;4844918;29;20043;-90
2023/12/15 16:16:45;;;;;;;582.33;60.67;;;;;;;;;;4908923;23;20068;-95
2023/12/15 16:19:15;;;;;;;535.03;56.40;;;;;;;;;;4871809;28;20025;-92
2023/12/15 16:21:45;;;;;;;197.20;26.02;;;;;;;;;;4828623;29;20036;-92
2023/12/15 16:24:12;;;;;;;281.27;32.45;;;;;;;;;;4863167;29;20091;-92
2023/12/15 16:26:42;;;;;;;182.57;23.80;;;;;;;;;;4847022;29;20036;-91
2023/12/15 16:29:10;;;;;;;559.35;58.47;;;;;;;;;;4861469;29;20393;-91
2023/12/15 16:31:40;;;;;;;586.85;58.95;;;;;;;;;;4829447;29;20128;-90
2023/12/15 16:34:10;;;;;;;381.30;37.15;;;;;;;;;;4859408;29;20048;-92
2023/12/15 16:36:37;;;;;;;346.63;35.72;;;;;;;;;;4853715;29;20043;-91
2023/12/15 16:39:04;;;;;;;612.88;59.88;;;;;;;;;;4832481;29;21222;-91
2023/12/15 16:41:31;;;;;;;636.28;61.72;;;;;;;;;;4791511;29;20063;-89
2023/12/15 16:44:00;;;;;;;619.10;63.97;;;;;;;;;;4804912;29;20060;-90
2023/12/15 16:46:27;;;;;;;619.20;67.65;;;;;;;;;;4847788;29;20040;-90
2023/12/15 16:48:54;;;;;;;596.22;59.80;;;;;;;;;;4808144;29;20990;-90
2023/12/15 16:51:23;;;;;;;564.47;58.28;;;;;;;;;;4836860;29;20040;-90
2023/12/15 16:53:50;;;;;;;529.10;51.45;;;;;;;;;;4823844;29;20071;-91
2023/12/15 16:56:18;;;;;;;227.13;30.02;;;;;;;;;;4804351;29;21592;-91
2023/12/15 16:58:44;;;;;;;578.53;56.95;;;;;;;;;;4819243;29;20045;-90
2023/12/15 17:01:11;;;;;;;565.15;53.92;;;;;;;;;;4809899;29;20256;-89
2023/12/15 17:03:40;;;;;;;716.60;70.78;;;;;;;;;;4824883;29;20041;-90
2023/12/15 17:06:11;;;;;;;693.85;68.95;;;;;;;;;;4804930;29;20603;-90
2023/12/15 17:08:41;;;;;;;825.03;84.05;;;;;;;;;;4812263;29;20045;-89
2023/12/15 17:11:08;;;;;;;770.45;78.63;;;;;;;;;;4797033;29;20113;-89
2023/12/15 17:13:35;;;;;;;482.88;48.50;;;;;;;;;;4851008;29;20036;-90
2023/12/15 17:16:02;;;;;;;552.20;53.78;;;;;;;;;;4839345;29;20203;-90
2023/12/15 17:18:30;;;;;;;599.55;60.08;;;;;;;;;;4827332;29;20040;-90
2023/12/15 17:20:57;;;;;;;646.20;64.97;;;;;;;;;;4820194;29;20063;-90
2023/12/15 17:23:30;;;;;;;607.28;56.22;;;;;;;;;;4818926;29;20056;-90
2023/12/15 17:25:56;;;;;;;616.75;60.85;;;;;;;;;;4842199;29;20048;-91
2023/12/15 17:28:23;;;;;;;658.08;72.05;;;;;;;;;;4818516;29;20986;-91
2023/12/15 17:30:50;;;;;;;336.90;35.53;;;;;;;;;;4847789;29;20538;-92
2023/12/15 17:33:17;;;;;;;422.23;49.78;;;;;;;;;;4853444;29;20106;-91
2023/12/15 17:35:45;;;;;;;464.85;52.38;;;;;;;;;;4834497;29;20120;-90
2023/12/15 17:38:12;;;;;;;616.22;60.40;;;;;;;;;;4827763;29;20060;-90
2023/12/15 17:40:39;;;;;;;556.35;61.65;;;;;;;;;;4827186;29;20203;-91
2023/12/15 17:43:05;;;;;;;682.05;71.65;;;;;;;;;;4822530;29;20240;-90
2023/12/15 17:45:35;;;;;;;776.03;77.90;;;;;;;;;;4812753;29;20127;-90
2023/12/15 17:48:02;;;;;;;231.65;27.23;;;;;;;;;;4846220;29;20060;-91
2023/12/15 17:50:29;;;;;;;569.42;68.45;;;;;;;;;;4821559;29;20033;-91
2023/12/15 17:53:09;;;;;;;231.73;46.50;;;;;;;;;;4888838;29;20408;-90
2023/12/15 17:55:40;;;;;;;87.38;18.63;;;;;;;;;;4895690;29;20471;-90
2023/12/15 18:01:29;;;;;;;92.28;16.00;;;;;;;;;;4898746;29;20484;-89
2023/12/15 18:03:56;;;;;;;137.93;18.48;;;;;;;;;;4899546;29;20076;-91
2023/12/15 18:06:23;;;;;;;97.15;15.57;;;;;;;;;;4902253;29;20040;-91
2023/12/15 18:08:50;;;;;;;114.03;17.20;;;;;;;;;;4904499;29;20054;-90
2023/12/15 18:11:24;;;;;;;188.88;20.85;;;;;;;;;;4890202;29;20053;-94
2023/12/15 18:13:51;;;;;;;90.78;17.45;;;;;;;;;;4890380;29;20048;-90
2023/12/15 18:16:22;;;;;;;93.03;16.98;;;;;;;;;;4895866;29;20045;-92
2023/12/15 18:18:49;;;;;;;113.72;17.65;;;;;;;;;;4907094;29;20127;-94
2023/12/15 18:21:16;;;;;;;90.22;16.25;;;;;;;;;;4871073;29;20057;-92
2023/12/15 18:23:43;;;;;;;73.68;16.30;;;;;;;;;;4908707;29;20127;-92
2023/12/15 18:26:10;;;;;;;121.28;19.80;;;;;;;;;;4904777;29;20045;-95
2023/12/15 18:28:36;;;;;;;65.93;15.35;;;;;;;;;;4905047;29;20042;-94
2023/12/15 18:31:04;;;;;;;70.82;15.32;;;;;;;;;;4906740;29;20508;-93
2023/12/15 18:33:31;;;;;;;96.22;17.15;;;;;;;;;;4899717;29;20048;-94
2023/12/15 18:35:58;;;;;;;70.72;15.15;;;;;;;;;;4908703;29;20119;-93
2023/12/15 18:38:24;;;;;;;57.92;15.85;;;;;;;;;;4899024;29;20051;-93
2023/12/15 18:40:51;;;;;;;101.78;17.02;;;;;;;;;;4901047;29;20072;-93
2023/12/15 18:43:18;;;;;;;78.93;15.88;;;;;;;;;;4890595;29;20511;-92
2023/12/15 18:45:45;;;;;;;58.25;14.07;;;;;;;;;;4911593;29;20096;-93
2023/12/15 18:48:13;;;;;;;100.40;15.55;;;;;;;;;;4902478;29;20471;-93
2023/12/15 18:50:41;;;;;;;64.75;15.23;;;;;;;;;;4914519;29;20080;-93
2023/12/15 18:53:08;;;;;;;61.03;13.75;;;;;;;;;;4929385;29;20108;-93
2023/12/15 18:55:34;;;;;;;88.10;16.10;;;;;;;;;;4923961;29;20044;-94
2023/12/15 18:58:01;;;;;;;91.72;17.25;;;;;;;;;;4906609;29;20492;-93
2023/12/15 19:00:28;;;;;;;77.43;15.88;;;;;;;;;;4898242;29;20036;-94
2023/12/15 19:06:04;;;;;;;140.85;19.08;;;;;;;;;;4899218;29;20059;-92
2023/12/15 19:08:32;;;;;;;54.85;14.18;;;;;;;;;;4891702;29;20389;-92
2023/12/15 19:11:00;;;;;;;55.60;14.25;;;;;;;;;;4898420;29;20104;-92
2023/12/15 19:13:26;;;;;;;101.00;17.38;;;;;;;;;;4892259;29;20051;-92
2023/12/15 19:15:53;;;;;;;68.38;15.20;;;;;;;;;;4897710;29;20056;-94
2023/12/15 19:18:20;;;;;;;93.57;16.73;;;;;;;;;;4897283;29;20116;-92
2023/12/15 19:20:47;;;;;;;164.90;22.08;;;;;;;;;;4901029;29;20044;-92
2023/12/15 19:23:16;;;;;;;90.90;16.25;;;;;;;;;;4906668;29;20055;-93
2023/12/15 19:25:49;;;;;;;96.07;16.90;;;;;;;;;;4887455;29;20139;-91
2023/12/15 19:28:18;;;;;;;99.38;16.27;;;;;;;;;;4907612;29;20676;-94
2023/12/15 19:30:47;;;;;;;78.40;15.50;;;;;;;;;;4904404;29;20088;-91
2023/12/15 19:33:17;;;;;;;126.13;17.10;;;;;;;;;;4901225;29;20783;-92
2023/12/15 19:35:44;;;;;;;53.80;13.68;;;;;;;;;;4890214;29;20044;-91
2023/12/15 19:38:11;;;;;;;66.68;15.20;;;;;;;;;;4891131;29;20053;-91
2023/12/15 19:40:37;;;;;;;95.55;16.40;;;;;;;;;;4907520;29;20040;-90
2023/12/15 19:43:04;;;;;;;59.15;14.38;;;;;;;;;;4898471;29;20053;-91
2023/12/15 19:45:30;;;;;;;47.60;14.65;;;;;;;;;;4902144;29;20107;-90
2023/12/15 19:48:04;;;;;;;114.75;16.85;;;;;;;;;;4894975;29;20052;-94
2023/12/15 19:50:31;;;;;;;88.57;16.73;;;;;;;;;;4899499;29;20044;-91
2023/12/15 19:52:58;;;;;;;43.28;12.80;;;;;;;;;;4903401;29;20052;-91
2023/12/15 19:55:24;;;;;;;90.25;16.83;;;;;;;;;;4902139;29;20555;-91
2023/12/15 19:57:51;;;;;;;71.55;15.55;;;;;;;;;;4906173;29;20492;-91
2023/12/15 20:00:18;;;;;;;59.30;14.68;;;;;;;;;;4898032;29;20071;-90
2023/12/15 20:02:46;;;;;;;77.18;16.73;;;;;;;;;;4903694;29;20096;-91
2023/12/15 20:05:15;;;;;;;43.53;13.60;;;;;;;;;;4897308;29;20055;-91
2023/12/15 20:07:42;;;;;;;53.10;14.18;;;;;;;;;;4907569;29;20047;-91
2023/12/15 20:10:09;;;;;;;131.82;18.92;;;;;;;;;;4899966;29;20131;-91
2023/12/15 20:12:35;;;;;;;72.32;15.32;;;;;;;;;;4903507;29;20071;-91
2023/12/15 20:15:03;;;;;;;55.97;14.40;;;;;;;;;;4894103;29;20123;-89
2023/12/15 20:17:29;;;;;;;90.60;16.15;;;;;;;;;;4903006;29;20074;-90
2023/12/15 20:19:57;;;;;;;52.88;14.65;;;;;;;;;;4892246;29;20044;-90
2023/12/15 20:22:24;;;;;;;67.70;16.67;;;;;;;;;;4902765;29;20448;-90
2023/12/15 20:24:51;;;;;;;81.68;17.50;;;;;;;;;;4904769;29;20055;-90
2023/12/15 20:27:17;;;;;;;56.15;18.55;;;;;;;;;;4899468;29;20060;-90
2023/12/15 20:29:45;;;;;;;64.40;17.92;;;;;;;;;;4907285;29;20045;-90
2023/12/15 20:32:11;;;;;;;120.47;23.45;;;;;;;;;;4897657;29;20673;-89
2023/12/15 20:34:38;;;;;;;77.80;19.20;;;;;;;;;;4903988;29;20415;-91
2023/12/15 20:37:05;;;;;;;65.40;17.48;;;;;;;;;;4900552;29;20108;-91
2023/12/15 20:39:33;;;;;;;103.10;21.40;;;;;;;;;;4904039;29;20052;-91
2023/12/15 20:42:00;;;;;;;67.32;17.17;;;;;;;;;;4895081;29;20071;-91
2023/12/15 20:44:26;;;;;;;68.20;19.83;;;;;;;;;;4899644;29;20036;-91
2023/12/15 20:46:53;;;;;;;113.97;21.42;;;;;;;;;;4906373;29;20045;-90
2023/12/15 20:49:20;;;;;;;83.63;17.73;;;;;;;;;;4902033;29;20127;-91
2023/12/15 20:51:47;;;;;;;59.15;14.65;;;;;;;;;;4911705;29;20037;-91
2023/12/15 20:54:14;;;;;;;102.97;18.25;;;;;;;;;;4883110;29;20056;-90
2023/12/15 20:56:42;;;;;;;67.70;15.95;;;;;;;;;;4910818;29;20051;-91
2023/12/15 20:59:08;;;;;;;49.80;16.85;;;;;;;;;;4903708;29;20420;-91
2023/12/15 21:01:36;;;;;;;123.47;20.05;;;;;;;;;;4905313;29;20479;-92
2023/12/15 21:04:03;;;;;;;74.35;18.02;;;;;;;;;;4897291;29;20052;-91
2023/12/15 21:06:31;;;;;;;57.65;15.57;;;;;;;;;;4905572;29;20051;-91
2023/12/15 21:08:58;;;;;;;86.88;17.45;;;;;;;;;;4906634;29;20052;-91
2023/12/15 21:11:29;;;;;;;62.83;16.33;;;;;;;;;;4889587;29;20475;-91
2023/12/15 21:13:56;;;;;;;53.72;16.80;;;;;;;;;;4907717;29;20063;-92
2023/12/15 21:16:27;;;;;;;116.60;19.75;;;;;;;;;;4903073;29;20068;-91
2023/12/15 21:18:54;;;;;;;68.32;18.55;;;;;;;;;;4910587;29;20048;-90
2023/12/15 21:21:26;;;;;;;72.40;18.05;;;;;;;;;;4902164;29;20385;-92
2023/12/15 21:23:53;;;;;;;99.45;19.25;;;;;;;;;;4911480;29;20444;-92
2023/12/15 21:26:19;;;;;;;88.30;20.23;;;;;;;;;;4905238;29;20852;-91
2023/12/15 21:28:46;;;;;;;66.90;17.45;;;;;;;;;;4919503;29;20072;-91
2023/12/15 21:31:13;;;;;;;91.32;20.58;;;;;;;;;;4894977;29;20457;-91
2023/12/15 21:33:40;;;;;;;71.30;18.23;;;;;;;;;;4903341;29;20076;-92
2023/12/15 21:36:09;;;;;;;79.13;18.80;;;;;;;;;;4907148;29;20048;-91
2023/12/15 21:38:37;;;;;;;72.70;18.88;;;;;;;;;;4902468;29;20531;-91
2023/12/15 21:41:04;;;;;;;63.42;18.13;;;;;;;;;;4909060;29;20706;-91
2023/12/15 21:43:31;;;;;;;59.90;17.52;;;;;;;;;;4898635;29;20051;-91
2023/12/15 21:45:58;;;;;;;91.88;19.40;;;;;;;;;;4909610;29;20096;-91
2023/12/15 21:48:25;;;;;;;90.22;21.10;;;;;;;;;;4901999;29;20060;-92
2023/12/15 21:50:52;;;;;;;72.90;19.33;;;;;;;;;;4908223;29;20052;-91
2023/12/15 21:53:18;;;;;;;101.15;20.25;;;;;;;;;;4901581;29;20049;-92
2023/12/15 21:55:45;;;;;;;70.72;19.85;;;;;;;;;;4904123;29;20048;-91
2023/12/15 21:58:12;;;;;;;88.28;21.10;;;;;;;;;;4903262;29;20044;-92
2023/12/15 22:00:38;;;;;;;99.90;21.33;;;;;;;;;;4900106;29;20757;-92
2023/12/15 22:03:05;;;;;;;84.10;21.60;;;;;;;;;;4894526;29;20047;-92
2023/12/15 22:05:32;;;;;;;97.95;21.25;;;;;;;;;;4898615;29;20551;-92
2023/12/15 22:07:58;;;;;;;99.60;21.90;;;;;;;;;;4909121;29;20485;-92
2023/12/15 22:10:25;;;;;;;85.78;22.80;;;;;;;;;;4900831;29;20559;-91
2023/12/15 22:12:52;;;;;;;71.28;21.33;;;;;;;;;;4909704;29;20049;-92
2023/12/15 22:15:18;;;;;;;132.52;24.15;;;;;;;;;;4898785;29;20045;-92
2023/12/15 22:17:45;;;;;;;271.77;36.85;;;;;;;;;;4910633;29;20080;-92
2023/12/15 22:20:12;;;;;;;70.18;20.55;;;;;;;;;;4898544;29;20057;-92
2023/12/15 22:22:40;;;;;;;112.60;23.05;;;;;;;;;;4902297;29;20544;-92
2023/12/15 22:25:07;;;;;;;61.13;20.73;;;;;;;;;;4906836;29;20607;-92
2023/12/15 22:27:34;;;;;;;73.78;21.02;;;;;;;;;;4890704;29;20036;-92
2023/12/15 22:30:01;;;;;;;120.25;23.33;;;;;;;;;;4902266;29;20036;-92
2023/12/15 22:32:29;;;;;;;64.13;20.13;;;;;;;;;;4901817;29;20071;-92
2023/12/15 22:34:56;;;;;;;207.93;29.38;;;;;;;;;;4905255;29;20494;-93
2023/12/15 22:37:23;;;;;;;108.80;22.10;;;;;;;;;;4898926;29;20033;-92
2023/12/15 22:39:49;;;;;;;87.97;22.45;;;;;;;;;;4910920;29;20060;-92
2023/12/15 22:42:16;;;;;;;69.95;19.52;;;;;;;;;;4904255;29;20044;-92
2023/12/15 22:44:43;;;;;;;122.68;23.92;;;;;;;;;;4905763;29;20036;-92
2023/12/15 22:47:09;;;;;;;53.97;19.05;;;;;;;;;;4904005;29;20100;-92
2023/12/15 22:49:36;;;;;;;68.22;20.42;;;;;;;;;;4904760;29;20040;-92
2023/12/15 22:52:03;;;;;;;119.95;24.90;;;;;;;;;;4907377;29;20580;-91
2023/12/15 22:54:30;;;;;;;74.65;22.85;;;;;;;;;;4881025;29;20151;-91
2023/12/15 22:56:57;;;;;;;78.00;21.73;;;;;;;;;;4909176;29;20052;-92
2023/12/15 22:59:26;;;;;;;133.90;24.95;;;;;;;;;;4900932;29;20073;-92